Aérodrome :
LOGIN :

S'inscrire | Disclaimer

   EN    FR    IT 

 










Légende :    VFR   VFR Marginal   IFR   IFR Intensif   IFR Très Intensif
Visi : 
Plafond : 
>= 8 km
>= 3000ft
5 à 8 km
1000 à 3000 ft
1500m à 5 km
500 à 1000 ft
800 à 1500m
200 à 500 ft
< 800m
< 200 ft
Symboles :   Orages  Brouillard  Fortes neiges  Fortes précipitations  Vent > 20 kt
SIGMETs :   Divers  Orages  Givrage  Turbulence  Onde Orograph.  Cendres Volcan.







- Altitude de l'aérodrome : 12 ft
- Code IATA : BCN


LEBL - Barcelone

DERNIER METAR :
  • 140800Z 29004KT 240V350 9999 FEW030 10/// Q1017 NOSIG

METARs EXPIRÉS :
  • 140730Z 00000KT 9999 FEW030 09/// Q1016 NOSIG
  • 140700Z VRB02KT 9999 FEW030 09/// Q1016 NOSIG
  • 140630Z 00000KT 9999 FEW030 10/// Q1016 NOSIG
  • 140530Z 31006KT 270V340 9999 FEW030 11/// Q1016 NOSIG

TAF TAF LEBL
Valide du 14 à 06h jusqu'au 15 à 06h UTC


140500Z 1406/1506 33008KT 9999 FEW030 TX17/1412Z TN09/1406Z
PROB40
TEMPO 1407/1409 33010G20KT
BECMG 1410/1412 26012KT
PROB40
TEMPO 1412/1418 26015G25KT
Pas de NOTAMs connus pour ce terrain.



MET'MAP, la Météo Aéronautique d'un coup d'oeil ! - Copyright ORBIFLY Décembre 2007 - Disclaimer

ORBIFLY MET'MAP TEAM :

Programmation & Développement : Alexandra Zaïnal
Conception & Développement : Baudouin d'Aumeries
Co-Programmation & Développement : Marc-Olivier Méhu
Soutien technique & logistique : Manuel Goepfert

Contact : metmap@orbifly.com




SOURCES & CREDITS :

   NOAA